createdAt,value
2016-12-06T12:20:05.642Z,17.81
2016-12-06T12:20:46.202Z,17.33
2016-12-06T12:21:26.718Z,16.75
2016-12-06T12:22:07.915Z,17.23
2016-12-06T12:22:48.431Z,17.52
2016-12-06T12:23:29.264Z,17.03
2016-12-06T12:24:09.797Z,18.58
2016-12-06T12:24:50.886Z,18
2016-12-06T12:25:31.628Z,18.58
2016-12-06T12:26:12.083Z,18.68
2016-12-06T12:26:53.577Z,17.9
2016-12-06T12:27:34.123Z,17.61
2016-12-06T12:28:14.930Z,17.52
2016-12-06T12:28:55.399Z,17.81
2016-12-06T12:29:36.135Z,18
2016-12-06T12:30:16.912Z,17.03
2016-12-06T12:30:57.662Z,17.81
2016-12-06T12:31:38.246Z,17.9
2016-12-06T12:32:18.740Z,18.19
2016-12-06T12:32:59.239Z,18.1
2016-12-06T12:33:39.886Z,18.77
2016-12-06T12:34:20.498Z,18.58
2016-12-06T12:35:01.876Z,18.48
2016-12-06T12:35:42.462Z,18.1
2016-12-06T12:36:22.955Z,18.68
2016-12-06T12:37:03.470Z,17.9
2016-12-06T12:37:43.966Z,19.15
2016-12-06T12:39:32.422Z,19.15
2016-12-06T12:40:12.926Z,19.45
2016-12-06T12:40:53.420Z,19.54
2016-12-06T12:41:33.901Z,18.87
2016-12-06T12:43:26.409Z,18.29
2016-12-06T12:44:06.878Z,17.03
2016-12-06T12:44:47.455Z,17.03
2016-12-06T12:45:27.941Z,17.33
2016-12-06T12:46:09.302Z,18.77
2016-12-06T12:46:49.881Z,20.02
2016-12-06T12:47:30.379Z,21.18
2016-12-06T12:48:10.840Z,20.5
2016-12-06T12:48:52.649Z,18.87
2016-12-06T12:49:33.253Z,18.1
2016-12-06T12:50:14.073Z,17.13
2016-12-06T12:50:55.100Z,16.46
2016-12-06T12:51:35.950Z,16.56
2016-12-06T12:52:16.954Z,16.65
2016-12-06T12:52:57.439Z,17.32
2016-12-06T12:53:37.891Z,17.42
2016-12-06T12:54:18.365Z,16.56
2016-12-06T12:54:58.839Z,16.65
2016-12-06T12:55:39.314Z,17.9
2016-12-06T12:56:19.923Z,18
2016-12-06T12:57:00.394Z,17.8
2016-12-06T12:57:40.909Z,17.52
2016-12-06T12:58:21.446Z,17.32
2016-12-06T12:59:01.893Z,16.55
2016-12-06T12:59:42.323Z,15.98
2016-12-06T13:00:22.751Z,16.06
2016-12-06T13:01:03.204Z,16.45
2016-12-06T13:01:43.713Z,15.69
2016-12-06T13:02:24.148Z,15.59
2016-12-06T13:03:04.631Z,15.69
2016-12-06T13:03:45.189Z,15.5
2016-12-06T13:04:25.729Z,15.39
2016-12-06T13:05:06.204Z,15.21
2016-12-06T13:05:46.676Z,15.2
2016-12-06T13:06:27.412Z,15.11
2016-12-06T13:07:07.889Z,15.5
2016-12-06T13:07:48.518Z,15.88
2016-12-06T13:08:29.019Z,15.59
2016-12-06T13:09:09.460Z,15.4
2016-12-06T13:09:49.977Z,15.4
2016-12-06T13:10:30.563Z,15.21
2016-12-06T13:11:11.056Z,15.21
2016-12-06T13:11:51.645Z,14.63
2016-12-06T13:12:32.156Z,15.01
2016-12-06T13:13:12.679Z,15.11
2016-12-06T13:13:53.130Z,14.83
2016-12-06T13:14:33.673Z,15.21
2016-12-06T13:15:14.206Z,15.59
2016-12-06T13:15:54.686Z,15.21
2016-12-06T13:16:35.211Z,15.21
2016-12-06T13:17:15.706Z,14.83
2016-12-06T13:17:56.201Z,14.63
2016-12-06T13:18:36.704Z,14.62
2016-12-06T13:19:17.196Z,14.44
2016-12-06T13:19:57.654Z,14.73
2016-12-06T13:20:38.196Z,14.73
2016-12-06T13:21:18.794Z,14.53
2016-12-06T13:21:59.272Z,14.53
2016-12-06T13:22:39.783Z,14.24
2016-12-06T13:23:20.252Z,14.15
2016-12-06T13:24:00.737Z,14.44
2016-12-06T13:24:41.387Z,14.53
2016-12-06T13:25:22.024Z,14.53
2016-12-06T13:26:02.487Z,14.25
2016-12-06T13:26:43.365Z,14.73
2016-12-06T13:27:24.402Z,15.01
2016-12-06T13:28:04.980Z,15.3
2016-12-06T13:28:45.823Z,15.01
2016-12-06T13:29:26.293Z,15.4
2016-12-06T13:30:06.877Z,16.27
2016-12-06T13:30:47.457Z,15.98
2016-12-06T13:31:27.909Z,15.88
2016-12-06T13:32:08.471Z,16.56
2016-12-06T13:33:57.204Z,16.85
2016-12-06T13:34:38.025Z,17.13
2016-12-06T13:35:18.489Z,17.81
2016-12-06T13:35:58.943Z,17.61
2016-12-06T13:36:39.415Z,17.23
2016-12-06T13:37:19.963Z,17.42
2016-12-06T13:38:00.390Z,17.9
2016-12-06T13:38:40.894Z,18
2016-12-06T13:39:21.419Z,17.61
2016-12-06T13:40:02.257Z,16.65
2016-12-06T13:40:42.984Z,17.03
2016-12-06T13:42:30.837Z,19.35
2016-12-06T13:43:10.996Z,18.68
2016-12-06T13:43:51.537Z,18.38
2016-12-06T13:44:32.014Z,17.71
2016-12-06T13:45:12.490Z,17.71
2016-12-06T13:45:52.987Z,17.42
2016-12-06T13:46:33.453Z,17.52
2016-12-06T13:47:13.927Z,17.23
2016-12-06T13:47:54.422Z,18.1
2016-12-06T13:48:35.761Z,19.06
2016-12-06T13:49:18.156Z,17.9
2016-12-06T13:49:58.724Z,18.38
2016-12-06T13:50:39.403Z,18.29
2016-12-06T13:51:20.296Z,17.61
2016-12-06T13:52:01.014Z,17.03
2016-12-06T13:52:42.236Z,16.75
2016-12-06T13:53:24.317Z,16.85
2016-12-06T13:54:04.934Z,17.03
2016-12-06T13:54:45.390Z,17.03
2016-12-06T13:55:26.423Z,16.75
2016-12-06T13:56:07.459Z,16.85
2016-12-06T13:56:48.206Z,17.23
2016-12-06T13:57:28.687Z,18.19
2016-12-06T13:58:09.254Z,19.25
2016-12-06T13:58:49.842Z,19.25
2016-12-06T13:59:30.970Z,18.68
2016-12-06T14:00:12.575Z,18.87
2016-12-06T14:00:53.346Z,17.71
2016-12-06T14:02:53.332Z,17.9
2016-12-06T14:03:36.666Z,17.61
2016-12-06T14:04:17.782Z,17.62
2016-12-06T14:04:58.309Z,17.33
2016-12-06T14:05:39.231Z,17.62
2016-12-06T14:06:21.176Z,18.01
2016-12-06T14:07:01.880Z,17.81
2016-12-06T14:07:42.601Z,17.72
2016-12-06T14:08:25.467Z,17.72
2016-12-06T14:09:06.292Z,17.33
2016-12-06T14:09:46.752Z,17.05
2016-12-06T14:10:27.333Z,17.24
2016-12-06T14:11:07.838Z,16.95
2016-12-06T14:11:48.641Z,17.05
2016-12-06T14:12:29.329Z,16.85
2016-12-06T14:13:09.901Z,17.53
2016-12-06T14:13:50.443Z,16.85
2016-12-06T14:14:30.952Z,16.75
2016-12-06T14:15:11.437Z,16.95
2016-12-06T14:15:51.908Z,16.85
2016-12-06T14:16:32.513Z,16.95
2016-12-06T14:17:13.061Z,17.14
2016-12-06T14:17:53.460Z,17.24
2016-12-06T14:18:34.012Z,17.05
2016-12-06T14:19:14.464Z,16.75
2016-12-06T14:19:55.022Z,17.24
2016-12-06T14:21:53.810Z,17.62
2016-12-06T14:22:34.283Z,17.72
2016-12-06T14:23:14.756Z,17.72
2016-12-06T14:23:55.194Z,18.2
2016-12-06T14:24:35.751Z,17.43
2016-12-06T14:25:16.284Z,17.43
2016-12-06T14:25:56.757Z,17.33
2016-12-06T14:26:39.164Z,16.85
2016-12-06T14:27:19.763Z,17.05
2016-12-06T14:28:00.434Z,16.75
2016-12-06T14:28:49.555Z,16.95
2016-12-06T14:29:30.069Z,16.75
2016-12-06T14:30:10.944Z,15.89
2016-12-06T14:30:51.464Z,15.89
2016-12-06T14:32:38.872Z,15.99
2016-12-06T14:33:19.677Z,16.56
2016-12-06T14:34:00.089Z,16.66
2016-12-06T14:36:13.529Z,16.56
2016-12-06T14:36:54.151Z,16.75
2016-12-06T14:37:35.045Z,16.85
2016-12-06T14:38:15.532Z,17.14
2016-12-06T14:38:56.670Z,17.05
2016-12-06T14:39:37.498Z,17.14
2016-12-06T14:40:18.659Z,16.75
2016-12-06T14:40:59.709Z,16.37
2016-12-06T14:41:41.232Z,15.8
2016-12-06T14:42:21.583Z,15.89
2016-12-06T14:43:02.170Z,16.56
2016-12-06T14:45:20.158Z,16.66
2016-12-06T14:46:01.819Z,16.37
2016-12-06T14:46:42.455Z,16.75
2016-12-06T14:47:23.005Z,16.95
2016-12-06T14:48:06.013Z,17.14
2016-12-06T14:48:48.192Z,16.85
2016-12-06T14:49:30.852Z,16.08
2016-12-06T14:50:11.373Z,15.78
2016-12-06T14:50:53.735Z,16.27
2016-12-06T14:51:34.409Z,16.56
2016-12-06T14:52:14.922Z,16.47
2016-12-06T14:52:55.780Z,16.36
2016-12-06T14:53:36.302Z,17.52
2016-12-06T14:54:16.830Z,16.46
2016-12-06T14:54:57.203Z,16.75
2016-12-06T14:55:37.659Z,16.27
2016-12-06T14:56:18.128Z,16.36
2016-12-06T14:56:58.648Z,15.88
2016-12-06T14:57:39.138Z,16.65
2016-12-06T14:58:19.586Z,16.65
2016-12-06T14:59:00.044Z,16.65
2016-12-06T14:59:40.525Z,15.98
2016-12-06T15:00:21.199Z,16.75
2016-12-06T15:01:01.836Z,16.85
2016-12-06T15:01:42.369Z,16.17
2016-12-06T15:02:22.794Z,16.56
2016-12-06T15:03:03.333Z,15.78
2016-12-06T15:03:43.854Z,15.59
2016-12-06T15:04:24.304Z,15.69
2016-12-06T15:05:04.945Z,15.4
2016-12-06T15:05:45.498Z,14.92
2016-12-06T15:06:25.879Z,15.21
2016-12-06T15:07:06.373Z,15.5
2016-12-06T15:07:46.924Z,15.21
2016-12-06T15:08:30.640Z,15.88
2016-12-06T15:09:11.113Z,15.4
2016-12-06T15:09:52.452Z,15.5
2016-12-06T15:10:32.901Z,15.21
2016-12-06T15:11:13.401Z,15.59
2016-12-06T15:11:53.848Z,16.08
2016-12-06T15:12:34.487Z,15.69
2016-12-06T15:13:14.769Z,15.98
2016-12-06T15:13:55.388Z,15.4
2016-12-06T15:16:08.074Z,15.3
2016-12-06T15:16:48.530Z,15.5
2016-12-06T15:17:29.135Z,15.4
2016-12-06T15:18:09.603Z,15.3
2016-12-06T15:18:50.316Z,15.88
2016-12-06T15:19:30.779Z,15.11
2016-12-06T15:20:11.254Z,15.98
2016-12-06T15:20:51.799Z,16.28
2016-12-06T15:21:32.979Z,15.59
2016-12-06T15:22:13.586Z,15.7
2016-12-06T15:22:54.283Z,15.4
2016-12-06T15:23:36.164Z,15.59
2016-12-06T15:24:16.633Z,15.6
2016-12-06T15:24:57.265Z,16.08
2016-12-06T15:25:37.753Z,17.14
2016-12-06T15:26:18.361Z,16.08
2016-12-06T15:26:58.843Z,15.89
2016-12-06T15:27:39.313Z,16.18
2016-12-06T15:28:19.698Z,16.18
2016-12-06T15:29:00.199Z,15.99
2016-12-06T15:29:41.692Z,16.95
2016-12-06T15:30:22.561Z,17.43
2016-12-06T15:31:03.013Z,17.33
2016-12-06T15:31:43.484Z,16.75
2016-12-06T15:32:23.948Z,17.05
2016-12-06T15:33:04.483Z,16.56
2016-12-06T15:33:44.953Z,17.05
2016-12-06T15:34:25.491Z,17.43
2016-12-06T15:35:05.872Z,17.24
2016-12-06T15:35:46.339Z,16.85
2016-12-06T15:36:26.799Z,17.14
2016-12-06T15:37:07.277Z,16.75
2016-12-06T15:37:47.769Z,16.56
2016-12-06T15:38:28.274Z,16.47
2016-12-06T15:39:08.805Z,16.75
2016-12-06T15:39:49.413Z,15.8
2016-12-06T15:40:29.835Z,15.99
2016-12-06T15:41:10.297Z,16.66
2016-12-06T15:41:50.856Z,16.66
2016-12-06T15:43:48.718Z,17.53
2016-12-06T15:44:29.109Z,17.43
2016-12-06T15:45:09.590Z,18.48
2016-12-06T15:45:58.618Z,16.75
2016-12-06T15:46:39.133Z,16.85
2016-12-06T15:47:19.511Z,16.17
2016-12-06T15:47:59.976Z,15.99
2016-12-06T15:48:40.415Z,15.7
2016-12-06T15:49:21.965Z,15.8
2016-12-06T15:50:02.461Z,15.6
2016-12-06T15:50:42.977Z,16.18
2016-12-06T15:51:23.455Z,16.56
2016-12-06T15:52:04.425Z,16.85
2016-12-06T15:52:45.335Z,16.95
2016-12-06T15:53:25.794Z,15.8
2016-12-06T15:54:06.252Z,15.7
2016-12-06T15:54:46.722Z,16.47
2016-12-06T15:55:27.297Z,16.56
2016-12-06T15:56:07.961Z,16.56
2016-12-06T15:56:48.400Z,15.8
2016-12-06T15:57:28.835Z,15.7
2016-12-06T15:58:09.271Z,15.99
2016-12-06T15:58:49.757Z,15.7
2016-12-06T15:59:30.254Z,16.37
2016-12-06T16:00:10.738Z,16.47
2016-12-06T16:00:51.195Z,15.89
2016-12-06T16:01:31.648Z,17.43
2016-12-06T16:02:12.181Z,17.24
2016-12-06T16:02:52.624Z,16.85
2016-12-06T16:03:33.286Z,16.75
2016-12-06T16:04:13.991Z,17.05
2016-12-06T16:04:54.442Z,16.75
2016-12-06T16:05:35.745Z,15.99
2016-12-06T16:06:16.197Z,16.47
2016-12-06T16:06:56.665Z,16.66
2016-12-06T16:07:37.142Z,16.75
2016-12-06T16:08:17.618Z,17.33
2016-12-06T16:08:58.113Z,17.91
2016-12-06T16:09:38.589Z,17.91
2016-12-06T16:10:19.361Z,17.24
2016-12-06T16:10:59.818Z,17.24
2016-12-06T16:11:40.256Z,16.85
2016-12-06T16:12:20.704Z,16.75
2016-12-06T16:13:01.196Z,16.28
2016-12-06T16:13:41.631Z,15.89
2016-12-06T16:14:22.076Z,16.47
2016-12-06T16:15:02.520Z,16.75
2016-12-06T16:15:43.028Z,16.18
2016-12-06T16:16:23.465Z,16.37
2016-12-06T16:17:03.928Z,16.56
2016-12-06T16:17:44.382Z,16.56
2016-12-06T16:18:24.844Z,16.85
2016-12-06T16:19:05.313Z,16.47
2016-12-06T16:19:45.804Z,16.75
2016-12-06T16:20:26.294Z,16.75
2016-12-06T16:21:06.712Z,16.47
2016-12-06T16:21:47.173Z,16.85
2016-12-06T16:22:27.636Z,16.75
2016-12-06T16:23:08.082Z,17.24
2016-12-06T16:23:48.651Z,17.24
2016-12-06T16:24:29.133Z,17.24
2016-12-06T16:25:09.617Z,17.24
2016-12-06T16:25:50.081Z,17.33
2016-12-06T16:26:30.542Z,17.05
2016-12-06T16:27:11.007Z,17.14
2016-12-06T16:27:51.465Z,16.85
2016-12-06T16:28:31.926Z,18.01
2016-12-06T16:29:12.403Z,16.56
2016-12-06T16:29:52.896Z,16.28
2016-12-06T16:30:33.366Z,16.37
2016-12-06T16:31:13.831Z,16.08
2016-12-06T16:31:54.279Z,16.85
2016-12-06T16:32:34.908Z,16.28
2016-12-06T16:33:15.237Z,16.18
2016-12-06T16:33:55.678Z,15.7
2016-12-06T16:34:36.189Z,16.37
2016-12-06T16:35:16.655Z,15.31
2016-12-06T16:35:57.162Z,16.18
2016-12-06T16:36:37.577Z,16.08
2016-12-06T16:37:18.029Z,15.7
2016-12-06T16:37:58.488Z,15.8
2016-12-06T16:38:39.124Z,16.08
2016-12-06T16:39:19.637Z,16.56
2016-12-06T16:40:00.117Z,16.75
2016-12-06T16:40:40.588Z,16.47
2016-12-06T16:41:21.058Z,15.89
2016-12-06T16:42:01.522Z,16.08
2016-12-06T16:42:42.027Z,15.99
2016-12-06T16:43:22.601Z,16.08
2016-12-06T16:44:03.071Z,15.8
2016-12-06T16:44:43.513Z,15.89
2016-12-06T16:45:24.028Z,15.8
2016-12-06T16:46:04.483Z,16.08
2016-12-06T16:46:44.925Z,15.6
2016-12-06T16:48:42.887Z,16.75
2016-12-06T16:49:23.336Z,16.75
2016-12-06T16:50:03.878Z,16.18
2016-12-06T16:50:44.370Z,15.89
2016-12-06T16:51:24.832Z,15.8
2016-12-06T16:52:05.275Z,15.7
2016-12-06T16:52:45.742Z,16.08
2016-12-06T16:53:26.500Z,15.6
2016-12-06T16:54:07.061Z,15.8
2016-12-06T16:54:47.671Z,15.8
2016-12-06T16:55:28.532Z,16.08
2016-12-06T16:56:09.065Z,15.7
2016-12-06T16:56:50.009Z,15.89
2016-12-06T16:57:30.534Z,15.7
2016-12-06T16:58:11.023Z,15.99
2016-12-06T16:58:51.484Z,16.66
2016-12-06T16:59:31.951Z,16.56
2016-12-06T17:00:12.413Z,16.47
2016-12-06T17:00:52.938Z,16.95
2016-12-06T17:01:33.416Z,16.85
2016-12-06T17:02:13.886Z,17.53
2016-12-06T17:02:54.342Z,16.56
2016-12-06T17:03:34.777Z,16.47
2016-12-06T17:04:15.326Z,16.66
2016-12-06T17:04:55.821Z,16.66
2016-12-06T17:05:36.319Z,17.05
2016-12-06T17:06:16.811Z,16.85
2016-12-06T17:06:57.265Z,17.33
2016-12-06T17:07:37.904Z,17.33
2016-12-06T17:08:18.460Z,16.85
2016-12-06T17:08:58.983Z,16.75
2016-12-06T17:09:39.454Z,16.75
2016-12-06T17:10:19.917Z,16.47
2016-12-06T17:11:00.419Z,15.7
2016-12-06T17:11:40.921Z,16.47
2016-12-06T17:12:21.399Z,16.85
2016-12-06T17:13:01.868Z,16.56
2016-12-06T17:13:42.396Z,16.08
2016-12-06T17:14:22.941Z,16.56
2016-12-06T17:15:03.401Z,16.56
2016-12-06T17:15:43.841Z,16.66
2016-12-06T17:16:24.297Z,16.95
2016-12-06T17:17:04.762Z,16.56
2016-12-06T17:17:45.235Z,16.56
2016-12-06T17:18:25.727Z,16.75
2016-12-06T17:20:13.220Z,16.47
2016-12-06T17:20:54.028Z,17.43
2016-12-06T17:21:34.486Z,17.14
2016-12-06T17:22:14.945Z,16.75
2016-12-06T17:22:55.414Z,17.14
2016-12-06T17:23:35.899Z,16.75
2016-12-06T17:24:16.341Z,16.75
2016-12-06T17:24:56.808Z,16.85
2016-12-06T17:25:37.343Z,16.85
2016-12-06T17:26:17.926Z,17.33
2016-12-06T17:26:58.448Z,17.14
2016-12-06T17:27:38.924Z,16.95
2016-12-06T17:28:19.390Z,16.85
2016-12-06T17:28:59.836Z,16.56
2016-12-06T17:29:40.317Z,16.75
2016-12-06T17:30:20.776Z,16.85
2016-12-06T17:31:01.246Z,17.05
2016-12-06T17:31:41.717Z,17.14
2016-12-06T17:32:22.170Z,17.33
2016-12-06T17:33:02.668Z,18.49
2016-12-06T17:33:43.294Z,16.56
2016-12-06T17:34:23.766Z,16.75
2016-12-06T17:35:04.214Z,16.56
2016-12-06T17:35:44.676Z,16.66
2016-12-06T17:36:25.139Z,16.75
2016-12-06T17:37:05.594Z,16.56
2016-12-06T17:37:46.067Z,16.56
2016-12-06T17:38:26.545Z,16.95
2016-12-06T17:39:07.007Z,16.18
2016-12-06T17:39:47.503Z,16.56
2016-12-06T17:40:28.005Z,16.47
2016-12-06T17:41:08.555Z,17.14
2016-12-06T17:41:49.020Z,17.14
2016-12-06T17:42:29.488Z,16.95
2016-12-06T17:43:09.958Z,17.14
2016-12-06T17:43:50.462Z,17.05
2016-12-06T17:44:30.936Z,17.62
2016-12-06T17:45:11.399Z,18.01
2016-12-06T17:45:51.880Z,17.05
2016-12-06T17:46:32.354Z,17.05
2016-12-06T17:47:12.826Z,17.14
2016-12-06T17:47:53.369Z,17.14
2016-12-06T17:48:33.874Z,16.95
2016-12-06T17:49:14.347Z,16.95
2016-12-06T17:49:54.803Z,17.53
2016-12-06T17:50:35.283Z,17.72
2016-12-06T17:51:15.730Z,17.53
2016-12-06T17:51:56.198Z,16.75
2016-12-06T17:52:36.656Z,17.43
2016-12-06T17:53:17.131Z,17.43
2016-12-06T17:53:57.595Z,16.75
2016-12-06T17:54:38.236Z,17.05
2016-12-06T17:55:18.801Z,16.75
2016-12-06T17:55:59.268Z,16.75
2016-12-06T17:56:39.718Z,16.56
2016-12-06T17:57:20.514Z,17.33
2016-12-06T17:58:00.970Z,18.59
2016-12-06T17:58:41.436Z,17.91
2016-12-06T17:59:21.900Z,17.14
2016-12-06T18:00:02.455Z,16.75
2016-12-06T18:00:43.177Z,16.85
2016-12-06T18:01:23.775Z,16.66
2016-12-06T18:02:04.240Z,16.56
2016-12-06T18:02:44.704Z,17.05
2016-12-06T18:03:25.164Z,17.62
2016-12-06T18:04:05.671Z,17.05
2016-12-06T18:04:46.136Z,16.95
